Time;durP1;ratioP1;P1;durP2;ratioP2;P2;SDS_P1;SDS_P2;PMS_P1;PMS_P2;Temp;Humidity;BMP_temperature;BMP_pressure;BME280_temperature;BME280_humidity;BME280_pressure;Samples;Min_cycle;Max_cycle;Signal;HPM_P1;HPM_P2
2023/03/21 00:01:31;;;;;;;0.40;0.40;;;;;;;9.12;100.00;99536.97;4976470;28;20034;-78
2023/03/21 00:03:57;;;;;;;0.40;0.40;;;;;;;9.08;100.00;99523.13;4976749;28;20112;-76
2023/03/21 00:06:22;;;;;;;0.40;0.40;;;;;;;9.09;100.00;99524.78;4960968;28;20366;-77
2023/03/21 00:08:48;;;;;;;0.40;0.40;;;;;;;9.10;100.00;99521.06;4992036;28;20038;-77
2023/03/21 00:11:14;;;;;;;0.32;0.32;;;;;;;9.01;100.00;99511.53;4960597;28;20030;-76
2023/03/21 00:13:42;;;;;;;0.40;0.40;;;;;;;8.98;100.00;99507.38;4976636;28;20069;-78
2023/03/21 00:16:16;;;;;;;0.40;0.40;;;;;;;9.01;100.00;99508.84;4960396;28;20034;-76
2023/03/21 00:18:47;;;;;;;0.30;0.30;;;;;;;8.96;100.00;99504.06;4977147;28;20031;-77
2023/03/21 00:21:15;;;;;;;0.30;0.30;;;;;;;8.97;100.00;99502.19;4976164;28;20465;-77
2023/03/21 00:23:42;;;;;;;0.40;0.40;;;;;;;8.97;100.00;99497.69;4976397;28;20040;-76
2023/03/21 00:26:08;;;;;;;0.40;0.40;;;;;;;8.96;100.00;99493.34;4975436;28;20038;-77
2023/03/21 00:28:36;;;;;;;0.30;0.30;;;;;;;8.88;100.00;99490.81;4976841;28;20038;-76
2023/03/21 00:31:02;;;;;;;0.35;0.35;;;;;;;8.76;100.00;99470.94;4992467;28;20034;-77
2023/03/21 00:33:28;;;;;;;0.30;0.30;;;;;;;8.73;100.00;99487.41;4959873;28;20136;-77
2023/03/21 00:35:54;;;;;;;0.40;0.40;;;;;;;8.68;100.00;99489.84;4960429;28;20092;-77
2023/03/21 00:38:21;;;;;;;0.30;0.30;;;;;;;8.50;100.00;99458.19;4992172;28;20097;-76
2023/03/21 00:40:47;;;;;;;0.40;0.40;;;;;;;8.61;100.00;99483.63;4992627;28;20037;-77
2023/03/21 00:43:18;;;;;;;0.30;0.30;;;;;;;8.56;100.00;99476.97;4960605;28;20030;-76
2023/03/21 00:45:45;;;;;;;0.32;0.32;;;;;;;8.61;100.00;99472.91;4960697;28;20042;-77
2023/03/21 00:48:11;;;;;;;0.40;0.40;;;;;;;8.47;100.00;99450.53;4960435;28;20385;-77
2023/03/21 00:50:37;;;;;;;0.30;0.30;;;;;;;8.47;100.00;99461.25;4975362;28;20030;-76
2023/03/21 00:53:05;;;;;;;0.38;0.38;;;;;;;8.31;100.00;99457.78;4976443;28;20492;-78
2023/03/21 00:55:30;;;;;;;0.38;0.38;;;;;;;8.26;100.00;99462.91;4975599;28;20409;-78
2023/03/21 00:57:56;;;;;;;0.30;0.30;;;;;;;8.24;100.00;99451.53;4993872;28;20034;-76
2023/03/21 01:00:22;;;;;;;0.30;0.30;;;;;;;8.32;100.00;99456.75;4963712;28;20034;-76
2023/03/21 01:02:56;;;;;;;0.40;0.40;;;;;;;8.42;100.00;99455.66;4962828;28;20140;-77
2023/03/21 01:06:02;;;;;;;0.40;0.40;;;;;;;8.36;100.00;99438.44;4964735;28;20518;-78
2023/03/21 01:08:14;;;;;;;0.40;0.40;;;;;;;8.53;100.00;99455.13;4981701;28;20048;-77
2023/03/21 01:10:41;;;;;;;0.40;0.40;;;;;;;8.57;100.00;99446.50;4963326;28;20034;-76
2023/03/21 01:13:08;;;;;;;0.32;0.32;;;;;;;8.56;100.00;99438.66;4995561;28;20457;-77
2023/03/21 01:15:35;;;;;;;0.32;0.32;;;;;;;8.58;100.00;99434.75;4962586;28;20416;-77
2023/03/21 01:18:01;;;;;;;0.40;0.40;;;;;;;8.54;100.00;99432.66;4979567;28;20035;-77
2023/03/21 01:20:27;;;;;;;0.40;0.40;;;;;;;8.54;100.00;99436.16;4962434;28;20037;-77
2023/03/21 01:22:53;;;;;;;0.40;0.40;;;;;;;8.56;100.00;99425.25;4979090;28;20027;-77
2023/03/21 01:25:19;;;;;;;0.40;0.40;;;;;;;8.63;100.00;99417.28;4963351;28;20465;-77
2023/03/21 01:27:45;;;;;;;0.40;0.40;;;;;;;8.59;100.00;99404.25;4962486;28;20069;-76
2023/03/21 01:30:12;;;;;;;0.40;0.40;;;;;;;8.61;100.00;99406.72;4979294;28;20041;-77
2023/03/21 01:32:38;;;;;;;0.40;0.40;;;;;;;8.64;100.00;99410.88;4963031;28;20038;-77
2023/03/21 01:35:04;;;;;;;0.40;0.40;;;;;;;8.61;100.00;99398.69;4962374;28;20523;-77
2023/03/21 01:37:31;;;;;;;0.38;0.38;;;;;;;8.65;100.00;99407.16;4963015;28;20034;-77
2023/03/21 01:39:57;;;;;;;0.30;0.30;;;;;;;8.61;100.00;99404.06;4963245;28;20072;-77
2023/03/21 01:42:22;;;;;;;0.40;0.40;;;;;;;8.62;100.00;99400.34;4962740;28;20066;-82
2023/03/21 01:45:00;;;;;;;0.40;0.40;;;;;;;8.58;100.00;99396.41;4978206;28;20495;-77
2023/03/21 01:47:26;;;;;;;0.40;0.40;;;;;;;8.58;100.00;99402.59;4978581;28;20096;-77
2023/03/21 01:49:55;;;;;;;0.30;0.30;;;;;;;8.54;100.00;99401.31;4962185;28;20469;-77
2023/03/21 01:52:25;;;;;;;0.30;0.30;;;;;;;8.54;100.00;99397.81;4994707;28;20023;-77
2023/03/21 01:54:53;;;;;;;0.38;0.38;;;;;;;8.52;100.00;99397.19;4978241;28;20088;-77
2023/03/21 01:57:31;;;;;;;0.38;0.38;;;;;;;8.47;100.00;99388.94;4961819;28;20496;-77
2023/03/21 01:59:57;;;;;;;0.30;0.30;;;;;;;8.41;100.00;99385.16;4963361;28;20092;-77
2023/03/21 02:02:26;;;;;;;0.38;0.38;;;;;;;8.37;100.00;99389.22;4978602;28;20495;-77
2023/03/21 02:04:56;;;;;;;0.30;0.30;;;;;;;8.31;100.00;99372.09;4978242;28;20428;-78
2023/03/21 02:07:34;;;;;;;0.30;0.30;;;;;;;8.15;100.00;99362.50;4994891;28;20030;-77
2023/03/21 02:10:07;;;;;;;0.40;0.40;;;;;;;8.19;100.00;99378.19;4977411;28;20041;-79
2023/03/21 02:12:33;;;;;;;0.40;0.40;;;;;;;8.12;100.00;99388.81;4994171;28;20041;-77
2023/03/21 02:14:59;;;;;;;0.40;0.40;;;;;;;8.09;100.00;99387.34;4962349;28;20139;-77
2023/03/21 02:17:39;;;;;;;0.40;0.40;;;;;;;8.05;100.00;99382.59;4993662;28;20122;-78
2023/03/21 02:20:49;;;;;;;0.32;0.32;;;;;;;8.05;100.00;99386.09;4994529;28;20477;-77
2023/03/21 02:23:22;;;;;;;0.40;0.40;;;;;;;8.04;100.00;99381.75;4978540;28;20033;-79
2023/03/21 02:26:06;;;;;;;0.30;0.30;;;;;;;8.09;100.00;99378.50;4977979;28;20308;-77
2023/03/21 02:28:39;;;;;;;0.40;0.40;;;;;;;8.08;100.00;99369.66;4994413;28;20057;-76
2023/03/21 02:31:25;;;;;;;0.40;0.40;;;;;;;8.12;100.00;99376.28;4961183;28;20069;-77
2023/03/21 02:34:26;;;;;;;0.40;0.40;;;;;;;8.19;100.00;99379.00;4978198;28;20433;-76
2023/03/21 02:37:02;;;;;;;0.40;0.40;;;;;;;8.24;100.00;99373.88;4977759;28;20026;-77
2023/03/21 02:39:50;;;;;;;0.40;0.40;;;;;;;8.20;100.00;99372.59;4978145;28;20498;-77
2023/03/21 02:42:20;;;;;;;0.40;0.40;;;;;;;8.23;100.00;99377.59;4993844;28;20026;-77
2023/03/21 02:45:08;;;;;;;0.30;0.30;;;;;;;8.26;100.00;99373.72;4993547;28;20097;-78
2023/03/21 02:47:59;;;;;;;0.30;0.30;;;;;;;8.31;100.00;99369.41;4994002;28;20030;-78
2023/03/21 02:50:32;;;;;;;0.40;0.40;;;;;;;8.29;100.00;99371.44;4960905;28;20405;-79
2023/03/21 02:52:58;;;;;;;;;;;;;;;8.32;100.00;99365.72;4993873;28;20470;-76
2023/03/21 02:55:25;;;;;;;0.30;0.30;;;;;;;8.34;100.00;99368.19;4961438;28;19917;-77
2023/03/21 02:57:54;;;;;;;0.40;0.40;;;;;;;8.33;100.00;99369.19;4961050;28;20069;-78
2023/03/21 03:00:23;;;;;;;0.40;0.40;;;;;;;8.41;100.00;99370.94;4993453;28;20081;-76
2023/03/21 03:02:49;;;;;;;0.40;0.40;;;;;;;8.43;100.00;99364.38;4977760;28;20096;-76
2023/03/21 03:05:19;;;;;;;0.30;0.30;;;;;;;8.45;100.00;99351.59;4977015;28;20065;-77
2023/03/21 03:08:09;;;;;;;0.50;0.50;;;;;;;8.43;100.00;99355.50;4977577;28;20037;-77
2023/03/21 03:11:04;;;;;;;0.40;0.40;;;;;;;8.42;100.00;99362.72;4965647;28;20050;-77
2023/03/21 03:14:07;;;;;;;0.40;0.40;;;;;;;8.49;100.00;99365.44;4976949;28;20038;-78
2023/03/21 03:16:46;;;;;;;0.40;0.40;;;;;;;8.51;100.00;99366.06;4993498;28;20061;-77
2023/03/21 03:19:26;;;;;;;0.40;0.40;;;;;;;8.43;100.00;99353.66;4976439;28;20049;-77
2023/03/21 03:22:02;;;;;;;0.40;0.40;;;;;;;8.45;100.00;99359.66;4977464;28;20034;-78
2023/03/21 03:24:37;;;;;;;0.30;0.30;;;;;;;8.57;100.00;99373.31;4977094;28;20038;-77
2023/03/21 03:27:09;;;;;;;0.40;0.40;;;;;;;8.54;100.00;99363.00;4960573;28;20045;-77
2023/03/21 03:29:38;;;;;;;0.40;0.40;;;;;;;8.59;100.00;99373.94;4977260;28;20030;-77
2023/03/21 03:32:14;;;;;;;0.40;0.40;;;;;;;8.61;100.00;99379.13;4961152;28;20547;-77
2023/03/21 03:34:44;;;;;;;0.40;0.40;;;;;;;8.64;100.00;99381.41;4975728;28;20041;-78
2023/03/21 03:37:13;;;;;;;0.40;0.40;;;;;;;8.68;100.00;99391.53;4976491;28;20038;-77
2023/03/21 03:39:45;;;;;;;0.30;0.30;;;;;;;8.70;100.00;99385.97;4977144;28;20046;-77
2023/03/21 03:42:17;;;;;;;0.40;0.40;;;;;;;8.67;100.00;99384.50;4961003;28;20108;-77
2023/03/21 03:44:44;;;;;;;0.40;0.40;;;;;;;8.70;100.00;99392.16;4976418;28;20041;-77
2023/03/21 03:47:12;;;;;;;0.40;0.40;;;;;;;8.67;100.00;99392.53;4960803;28;20489;-77
2023/03/21 03:49:53;;;;;;;0.40;0.40;;;;;;;8.63;100.00;99396.66;4993052;28;20469;-77
2023/03/21 03:52:23;;;;;;;0.30;0.30;;;;;;;8.62;100.00;99400.34;4992328;28;20129;-77
2023/03/21 03:54:50;;;;;;;0.40;0.40;;;;;;;8.59;100.00;99403.41;4960407;28;20026;-77
2023/03/21 03:57:16;;;;;;;0.40;0.40;;;;;;;8.55;100.00;99404.84;4993016;28;20517;-77
2023/03/21 03:59:42;;;;;;;0.40;0.40;;;;;;;8.57;100.00;99417.03;4992008;28;20030;-77
2023/03/21 04:02:08;;;;;;;0.40;0.40;;;;;;;8.53;100.00;99412.25;4960565;28;20123;-77
2023/03/21 04:04:35;;;;;;;0.40;0.40;;;;;;;8.52;100.00;99411.44;4960685;28;20121;-78
2023/03/21 04:07:02;;;;;;;0.32;0.32;;;;;;;8.53;100.00;99433.69;4977123;28;20493;-77
2023/03/21 04:09:28;;;;;;;0.40;0.40;;;;;;;8.50;100.00;99428.72;4992097;28;20069;-77
2023/03/21 04:11:55;;;;;;;1.23;0.40;;;;;;;8.49;100.00;99435.06;4992892;28;20030;-77
2023/03/21 04:14:21;;;;;;;0.40;0.40;;;;;;;8.46;100.00;99440.81;4992949;28;20038;-77
2023/03/21 04:16:48;;;;;;;0.40;0.40;;;;;;;8.45;100.00;99445.38;4960217;28;20493;-78
2023/03/21 04:19:14;;;;;;;0.40;0.40;;;;;;;8.35;100.00;99426.91;4976828;28;20080;-76
2023/03/21 04:21:41;;;;;;;0.50;0.50;;;;;;;8.44;100.00;99457.13;4992773;28;20022;-76
2023/03/21 04:24:07;;;;;;;0.40;0.40;;;;;;;8.41;100.00;99457.47;4991738;28;20027;-77
2023/03/21 04:26:34;;;;;;;0.40;0.40;;;;;;;8.40;100.00;99455.84;4960741;28;20064;-77
2023/03/21 04:29:01;;;;;;;0.40;0.40;;;;;;;8.40;100.00;99465.72;4992710;28;20026;-78
2023/03/21 04:31:29;;;;;;;0.35;0.35;;;;;;;8.35;100.00;99476.97;4992230;28;20026;-77
2023/03/21 04:34:00;;;;;;;0.40;0.40;;;;;;;8.33;100.00;99482.50;4980338;28;20109;-77
2023/03/21 04:36:31;;;;;;;0.40;0.40;;;;;;;8.27;100.00;99472.56;4963099;28;20182;-79
2023/03/21 04:39:00;;;;;;;0.47;0.47;;;;;;;8.31;100.00;99483.75;4964892;28;20049;-77
2023/03/21 04:41:27;;;;;;;0.40;0.40;;;;;;;8.28;100.00;99481.44;4980358;28;20378;-77
2023/03/21 04:43:53;;;;;;;0.30;0.30;;;;;;;8.24;100.00;99474.81;4995457;28;20039;-77
2023/03/21 04:46:19;;;;;;;0.30;0.30;;;;;;;8.24;100.00;99482.84;4980159;28;20030;-77
2023/03/21 04:48:46;;;;;;;0.32;0.32;;;;;;;8.13;100.00;99473.50;4964049;28;20085;-77
2023/03/21 04:51:12;;;;;;;0.40;0.40;;;;;;;7.92;100.00;99488.50;4979057;28;20113;-76
2023/03/21 04:53:38;;;;;;;0.40;0.40;;;;;;;7.74;100.00;99480.06;4979574;28;20042;-76
2023/03/21 04:56:05;;;;;;;0.30;0.30;;;;;;;7.66;100.00;99469.50;4979225;28;20150;-76
2023/03/21 04:58:31;;;;;;;0.38;0.38;;;;;;;7.74;100.00;99473.91;4995154;28;20046;-76
2023/03/21 05:00:56;;;;;;;0.35;0.35;;;;;;;7.82;100.00;99479.97;4979479;28;20194;-76
2023/03/21 05:03:23;;;;;;;0.30;0.30;;;;;;;7.88;100.00;99468.47;4963741;28;20553;-78
2023/03/21 05:05:49;;;;;;;0.40;0.40;;;;;;;7.84;100.00;99467.22;4995157;28;20048;-76
2023/03/21 05:08:15;;;;;;;0.40;0.40;;;;;;;7.90;100.00;99477.16;4963729;28;20068;-77
2023/03/21 05:10:41;;;;;;;0.40;0.40;;;;;;;7.82;100.00;99463.06;4962522;28;20949;-76
2023/03/21 05:13:07;;;;;;;0.35;0.35;;;;;;;7.87;100.00;99477.53;4995960;28;20069;-78
2023/03/21 05:15:33;;;;;;;0.30;0.30;;;;;;;7.82;100.00;99458.53;4979538;28;20475;-77
2023/03/21 05:18:09;;;;;;;0.40;0.40;;;;;;;7.78;100.00;99462.63;4963044;28;20244;-77
2023/03/21 05:20:35;;;;;;;0.35;0.35;;;;;;;7.64;100.00;99468.84;4964946;28;20114;-77
2023/03/21 05:23:01;;;;;;;0.30;0.30;;;;;;;7.57;100.00;99481.31;4962554;28;20484;-76
2023/03/21 05:25:34;;;;;;;0.40;0.40;;;;;;;7.51;100.00;99482.88;4963208;28;20060;-77
2023/03/21 05:28:00;;;;;;;0.40;0.40;;;;;;;7.49;100.00;99476.91;4979924;28;20555;-77
2023/03/21 05:30:27;;;;;;;0.30;0.30;;;;;;;7.54;100.00;99487.03;4962829;28;20061;-77
2023/03/21 05:32:53;;;;;;;0.40;0.40;;;;;;;7.48;100.00;99477.91;4963301;28;20057;-77
2023/03/21 05:35:19;;;;;;;0.30;0.30;;;;;;;7.52;100.00;99483.75;4963072;28;20034;-78
2023/03/21 05:37:44;;;;;;;0.30;0.30;;;;;;;7.49;100.00;99490.28;4962467;28;20030;-77
2023/03/21 05:40:11;;;;;;;0.30;0.30;;;;;;;7.58;100.00;99499.03;4962774;28;20038;-76
2023/03/21 05:42:36;;;;;;;0.30;0.30;;;;;;;7.55;100.00;99489.53;4978212;28;20053;-76
2023/03/21 05:45:03;;;;;;;0.40;0.40;;;;;;;7.58;100.00;99507.88;4962843;28;20481;-76
2023/03/21 05:47:30;;;;;;;0.40;0.40;;;;;;;7.60;100.00;99513.06;4962578;28;20073;-77
2023/03/21 05:49:55;;;;;;;0.40;0.40;;;;;;;7.66;100.00;99504.28;4978458;28;20058;-77
2023/03/21 05:52:21;;;;;;;0.30;0.30;;;;;;;7.81;100.00;99510.41;4994765;28;20029;-77
2023/03/21 05:54:47;;;;;;;0.40;0.40;;;;;;;7.86;100.00;99513.38;4977846;28;20038;-77
2023/03/21 05:57:13;;;;;;;0.40;0.40;;;;;;;7.90;100.00;99514.63;4962361;28;20030;-77
2023/03/21 05:59:39;;;;;;;0.30;0.30;;;;;;;7.92;100.00;99515.28;4978288;28;20023;-77
2023/03/21 06:02:05;;;;;;;0.40;0.40;;;;;;;7.97;100.00;99514.72;4994867;28;20110;-78
2023/03/21 06:04:31;;;;;;;0.40;0.40;;;;;;;8.01;100.00;99510.63;4978812;28;20129;-76
2023/03/21 06:06:56;;;;;;;0.40;0.40;;;;;;;8.01;100.00;99509.81;4962737;28;20417;-77
2023/03/21 06:09:23;;;;;;;0.40;0.40;;;;;;;7.97;100.00;99503.19;4978710;28;20038;-77
2023/03/21 06:11:51;;;;;;;0.30;0.30;;;;;;;8.07;100.00;99519.75;4978513;28;20061;-77
2023/03/21 06:14:17;;;;;;;0.40;0.40;;;;;;;8.07;100.00;99519.75;4962197;28;20039;-77
2023/03/21 06:16:43;;;;;;;0.40;0.40;;;;;;;8.03;100.00;99523.84;4978365;28;20076;-77
2023/03/21 06:19:08;;;;;;;0.40;0.40;;;;;;;7.90;100.00;99511.94;4962112;28;20030;-77
2023/03/21 06:21:34;;;;;;;0.40;0.40;;;;;;;7.72;100.00;99512.34;4978457;28;20104;-77
2023/03/21 06:24:00;;;;;;;0.40;0.40;;;;;;;7.52;100.00;99497.94;4978400;28;20420;-77
2023/03/21 06:26:26;;;;;;;0.40;0.40;;;;;;;7.58;100.00;99515.06;4978472;28;20038;-77
2023/03/21 06:28:53;;;;;;;0.40;0.40;;;;;;;7.55;100.00;99515.47;4962194;28;20034;-77
2023/03/21 06:31:21;;;;;;;0.40;0.40;;;;;;;7.64;100.00;99508.97;4946106;28;20045;-76
2023/03/21 06:33:48;;;;;;;0.40;0.40;;;;;;;7.78;100.00;99512.63;4962368;28;20097;-77
2023/03/21 06:36:14;;;;;;;0.30;0.30;;;;;;;7.81;100.00;99499.72;4961838;28;20100;-77
2023/03/21 06:38:40;;;;;;;0.40;0.40;;;;;;;7.94;100.00;99515.09;4994262;28;20041;-79
2023/03/21 06:41:12;;;;;;;0.40;0.40;;;;;;;8.04;100.00;99528.97;4978669;28;20053;-79
2023/03/21 06:43:38;;;;;;;0.40;0.40;;;;;;;8.09;100.00;99536.44;4993919;28;20428;-79
2023/03/21 06:46:04;;;;;;;0.40;0.40;;;;;;;8.11;100.00;99543.28;4961933;28;20026;-78
2023/03/21 06:48:30;;;;;;;0.45;0.45;;;;;;;8.12;100.00;99542.28;4961662;28;20374;-79
2023/03/21 06:50:55;;;;;;;0.40;0.40;;;;;;;8.18;100.00;99547.84;4977776;28;20038;-75
2023/03/21 06:53:26;;;;;;;0.30;0.30;;;;;;;8.18;100.00;99539.81;4961692;28;20062;-76
2023/03/21 06:55:55;;;;;;;0.40;0.40;;;;;;;8.22;100.00;99538.44;4977241;28;20056;-77
2023/03/21 06:58:21;;;;;;;0.40;0.40;;;;;;;8.27;100.00;99536.03;4961710;28;20065;-77
2023/03/21 07:00:47;;;;;;;0.40;0.40;;;;;;;8.24;100.00;99534.56;4961733;28;20092;-76
2023/03/21 07:03:13;;;;;;;0.40;0.40;;;;;;;8.26;100.00;99545.91;4993796;28;20424;-76
2023/03/21 07:05:39;;;;;;;0.30;0.30;;;;;;;8.33;100.00;99548.63;4961572;28;20038;-76
2023/03/21 07:08:11;;;;;;;0.40;0.40;;;;;;;8.28;100.00;99548.38;4961570;28;20042;-76
2023/03/21 07:10:38;;;;;;;0.40;0.40;;;;;;;8.37;100.00;99556.13;4993260;28;20030;-77
2023/03/21 07:13:04;;;;;;;0.40;0.40;;;;;;;8.35;100.00;99551.97;4993532;28;20492;-76
2023/03/21 07:15:30;;;;;;;0.40;0.40;;;;;;;8.38;100.00;99560.44;4961148;28;20030;-76
2023/03/21 07:17:55;;;;;;;0.40;0.40;;;;;;;8.43;100.00;99565.25;4977467;28;20042;-76
2023/03/21 07:20:21;;;;;;;0.40;0.40;;;;;;;8.51;100.00;99569.66;4961308;28;20038;-77
2023/03/21 07:22:47;;;;;;;0.40;0.40;;;;;;;8.48;100.00;99551.31;4961299;28;20045;-76
2023/03/21 07:25:13;;;;;;;0.40;0.40;;;;;;;8.56;100.00;99565.38;4961298;28;20031;-76
2023/03/21 07:27:39;;;;;;;0.40;0.40;;;;;;;8.57;100.00;99539.41;4977260;28;20473;-76
2023/03/21 07:30:05;;;;;;;0.40;0.40;;;;;;;8.68;100.00;99559.50;4961300;28;20042;-76
2023/03/21 07:32:32;;;;;;;0.40;0.40;;;;;;;8.73;100.00;99557.06;4960877;28;20477;-77
2023/03/21 07:34:59;;;;;;;0.40;0.40;;;;;;;8.88;100.00;99551.63;4977007;28;20045;-76
2023/03/21 07:37:25;;;;;;;0.40;0.40;;;;;;;8.93;100.00;99554.56;4961097;28;20087;-76
2023/03/21 07:39:51;;;;;;;0.40;0.40;;;;;;;8.88;100.00;99539.06;4961017;28;20037;-79
2023/03/21 07:42:18;;;;;;;0.40;0.40;;;;;;;8.84;100.00;99553.91;4992959;28;20620;-78
2023/03/21 07:44:43;;;;;;;0.40;0.40;;;;;;;8.82;100.00;99560.47;4961017;28;20038;-75
2023/03/21 07:47:09;;;;;;;0.40;0.40;;;;;;;8.81;100.00;99551.56;4961054;28;20026;-75
2023/03/21 07:49:36;;;;;;;0.40;0.40;;;;;;;8.83;100.00;99546.84;4976907;28;20389;-77
2023/03/21 07:52:02;;;;;;;0.40;0.40;;;;;;;8.90;100.00;99541.56;4976840;28;20030;-76
2023/03/21 07:54:28;;;;;;;0.40;0.40;;;;;;;9.03;100.00;99549.69;4992532;28;20034;-78
2023/03/21 07:56:55;;;;;;;0.40;0.40;;;;;;;9.11;100.00;99549.56;4960676;28;20466;-78
2023/03/21 07:59:21;;;;;;;0.40;0.40;;;;;;;9.20;100.00;99556.41;4976547;28;20030;-78
2023/03/21 08:01:47;;;;;;;0.40;0.40;;;;;;;9.50;100.00;99547.28;4976502;28;20035;-78
2023/03/21 08:04:12;;;;;;;0.50;0.50;;;;;;;9.98;100.00;99561.56;4976854;28;20040;-78
2023/03/21 08:06:39;;;;;;;0.50;0.50;;;;;;;10.62;100.00;99562.16;4962963;28;20030;-77
2023/03/21 08:09:05;;;;;;;0.50;0.50;;;;;;;11.21;100.00;99561.28;4980291;28;20030;-77
2023/03/21 08:11:30;;;;;;;0.40;0.40;;;;;;;11.45;100.00;99546.34;4964711;28;20046;-78
2023/03/21 08:13:57;;;;;;;0.40;0.40;;;;;;;11.13;100.00;99543.50;4964642;28;20045;-77
2023/03/21 08:16:23;;;;;;;0.40;0.40;;;;;;;10.93;100.00;99569.63;4964333;28;20061;-77
2023/03/21 08:18:49;;;;;;;0.45;0.45;;;;;;;11.11;100.00;99566.28;4964674;28;20473;-77
2023/03/21 08:21:15;;;;;;;0.40;0.40;;;;;;;11.13;100.00;99565.03;4980681;28;20085;-77
2023/03/21 08:23:41;;;;;;;0.60;0.60;;;;;;;11.43;100.00;99570.78;4964052;28;20076;-77
2023/03/21 08:26:08;;;;;;;0.40;0.40;;;;;;;11.45;100.00;99578.63;4964492;28;20108;-77
2023/03/21 08:28:35;;;;;;;0.50;0.50;;;;;;;11.25;100.00;99583.25;4996317;28;20541;-76
2023/03/21 08:31:09;;;;;;;0.68;0.68;;;;;;;11.29;100.00;99568.31;4980318;28;20046;-77
2023/03/21 08:33:35;;;;;;;0.50;0.50;;;;;;;11.53;100.00;99554.19;4996229;28;20026;-77
2023/03/21 08:36:01;;;;;;;0.40;0.40;;;;;;;11.49;100.00;99558.34;4979951;28;20042;-77
2023/03/21 08:38:32;;;;;;;0.40;0.40;;;;;;;11.32;100.00;99544.50;4964219;28;20037;-77
2023/03/21 08:41:01;;;;;;;0.45;0.45;;;;;;;11.13;100.00;99548.06;4996118;28;20026;-78
2023/03/21 08:43:27;;;;;;;0.50;0.50;;;;;;;10.87;100.00;99533.59;4964262;28;20042;-77
2023/03/21 08:45:54;;;;;;;0.50;0.50;;;;;;;10.78;100.00;99540.22;4980242;28;20038;-77
2023/03/21 08:48:19;;;;;;;0.40;0.40;;;;;;;10.63;100.00;99526.16;4979978;28;20041;-77
2023/03/21 08:50:45;;;;;;;0.40;0.40;;;;;;;10.59;100.00;99530.31;4979762;28;20034;-77
2023/03/21 08:53:11;;;;;;;0.40;0.40;;;;;;;10.48;100.00;99515.63;4964047;28;20084;-76
2023/03/21 08:55:37;;;;;;;0.47;0.47;;;;;;;10.52;100.00;99536.50;4963647;28;20477;-77
2023/03/21 08:58:03;;;;;;;0.50;0.50;;;;;;;10.51;100.00;99525.97;4979897;28;20031;-77
2023/03/21 09:00:29;;;;;;;0.40;0.40;;;;;;;10.49;100.00;99528.84;4979491;28;20030;-77
2023/03/21 09:02:56;;;;;;;0.40;0.40;;;;;;;10.52;100.00;99528.44;4963332;28;20121;-77
2023/03/21 09:05:22;;;;;;;0.43;0.43;;;;;;;10.58;100.00;99524.09;4979413;28;20041;-76
2023/03/21 09:07:48;;;;;;;0.40;0.40;;;;;;;10.63;100.00;99526.16;4979631;28;20046;-78
2023/03/21 09:10:17;;;;;;;0.50;0.50;;;;;;;10.73;100.00;99526.59;4963420;28;20038;-77
2023/03/21 09:12:42;;;;;;;0.50;0.50;;;;;;;10.92;100.00;99527.59;4979690;28;20142;-77
2023/03/21 09:15:09;;;;;;;0.40;0.40;;;;;;;11.25;100.00;99530.25;4979229;28;20516;-77
2023/03/21 09:17:35;;;;;;;0.50;0.50;;;;;;;11.61;100.00;99520.81;4962812;28;20030;-77
2023/03/21 09:20:10;;;;;;;0.50;0.50;;;;;;;12.13;100.00;99527.03;4979661;28;20061;-78
2023/03/21 09:22:37;;;;;;;0.52;0.52;;;;;;;12.76;100.00;99528.88;4996518;28;20109;-77
2023/03/21 09:25:07;;;;;;;0.50;0.50;;;;;;;13.48;100.00;99533.84;4995224;28;20046;-77
2023/03/21 09:27:33;;;;;;;0.60;0.60;;;;;;;14.30;100.00;99523.44;4995602;28;20117;-77
2023/03/21 09:30:00;;;;;;;0.50;0.50;;;;;;;14.59;100.00;99526.38;4979658;28;20121;-77
2023/03/21 09:32:28;;;;;;;0.50;0.50;;;;;;;13.97;100.00;99519.31;4994783;28;20409;-79
2023/03/21 09:34:54;;;;;;;0.50;0.50;;;;;;;13.63;100.00;99512.69;4978912;28;20030;-77
2023/03/21 09:37:20;;;;;;;0.50;0.50;;;;;;;13.43;100.00;99504.81;4994951;28;20061;-79
2023/03/21 09:39:49;;;;;;;0.50;0.50;;;;;;;13.66;100.00;99525.72;4994921;28;20045;-78
2023/03/21 09:42:34;;;;;;;0.80;0.80;;;;;;;14.46;100.00;99546.28;4994990;28;20053;-77
2023/03/21 09:45:25;;;;;;;0.40;0.40;;;;;;;14.56;100.00;99538.47;4996306;28;20120;-77
2023/03/21 09:47:52;;;;;;;0.50;0.50;;;;;;;14.12;100.00;99532.41;4979532;28;20080;-77
2023/03/21 09:50:26;;;;;;;0.50;0.50;;;;;;;13.90;100.00;99534.78;4994715;28;20038;-77
2023/03/21 09:53:07;;;;;;;0.60;0.60;;;;;;;13.36;100.00;99531.88;4963011;28;20101;-77
2023/03/21 09:55:35;;;;;;;1.83;0.63;;;;;;;12.76;100.00;99528.88;4978277;28;20042;-76
2023/03/21 09:58:13;;;;;;;0.80;0.80;;;;;;;12.36;100.00;99545.38;4962779;28;20129;-77
2023/03/21 10:00:44;;;;;;;1.00;0.75;;;;;;;12.30;100.00;99543.50;4995069;28;20030;-77
2023/03/21 10:03:23;;;;;;;0.47;0.47;;;;;;;12.65;100.00;99541.22;4978094;28;20050;-77
2023/03/21 10:05:57;;;;;;;0.70;0.70;;;;;;;12.76;100.00;99532.41;4994958;28;20112;-77
2023/03/21 10:08:26;;;;;;;0.85;0.85;;;;;;;12.66;100.00;99531.25;4978672;28;20023;-78
2023/03/21 10:10:55;;;;;;;2.88;0.98;;;;;;;12.51;100.00;99539.66;4962607;28;20556;-78
2023/03/21 10:13:30;;;;;;;1.75;0.90;;;;;;;12.57;100.00;99538.78;4962368;28;20054;-78
2023/03/21 10:16:18;;;;;;;3.83;1.30;;;;;;;12.71;100.00;99523.34;4994403;28;20037;-76
2023/03/21 10:18:45;;;;;;;2.88;1.42;;;;;;;12.79;100.00;99524.94;4962149;28;20038;-76
2023/03/21 10:21:25;;;;;;;2.47;1.23;;;;;;;12.97;100.00;99520.41;4978446;28;20085;-77
2023/03/21 10:23:53;;;;;;;5.53;1.25;;;;;;;13.04;100.00;99519.50;4994020;28;20029;-78
2023/03/21 10:26:20;;;;;;;5.50;1.50;;;;;;;13.05;100.00;99518.47;4946399;28;20581;-78
2023/03/21 10:28:47;;;;;;;7.18;1.75;;;;;;;13.02;100.00;99521.59;4977335;28;20030;-86
2023/03/21 10:31:21;;;;;;;11.45;2.15;;;;;;;12.96;100.00;99523.31;4977601;28;20046;-85
2023/03/21 10:33:49;;;;;;;2.80;1.00;;;;;;;13.01;100.00;99517.25;4962724;28;20056;-87
2023/03/21 10:36:18;;;;;;;3.95;1.20;;;;;;;13.12;100.00;99511.94;4978184;28;20464;-86
2023/03/21 10:38:47;;;;;;;2.72;1.13;;;;;;;13.16;100.00;99515.03;4993736;28;20045;-88
2023/03/21 10:41:12;;;;;;;7.40;1.40;;;;;;;12.74;100.00;99507.53;4977820;28;20512;-87
2023/03/21 10:43:39;;;;;;;7.90;1.80;;;;;;;12.41;100.00;99502.41;4978030;28;20034;-84
2023/03/21 10:46:07;;;;;;;9.27;1.73;;;;;;;12.17;100.00;99490.56;4993784;28;20065;-87
2023/03/21 10:48:40;;;;;;;5.90;1.65;;;;;;;12.27;100.00;99496.25;4962023;28;20034;-83
2023/03/21 10:51:19;;;;;;;7.15;1.63;;;;;;;12.56;100.00;99501.25;5055783;28;20388;-85
2023/03/21 10:53:51;;;;;;;1.35;0.82;;;;;;;12.71;100.00;99497.19;5010422;28;20045;-87
2023/03/21 10:56:16;;;;;;;9.85;1.70;;;;;;;12.70;100.00;99484.75;4997720;28;20045;-88
2023/03/21 10:58:45;;;;;;;3.85;1.65;;;;;;;12.79;100.00;99488.00;5029288;28;20036;-85
2023/03/21 11:01:29;;;;;;;4.93;1.52;;;;;;;12.74;100.00;99488.63;5031733;28;20037;-85
2023/03/21 11:03:57;;;;;;;5.45;1.45;;;;;;;12.74;100.00;99491.34;5001672;28;20037;-86
2023/03/21 11:06:29;;;;;;;2.72;1.27;;;;;;;12.61;100.00;99485.25;5012505;28;20021;-88
2023/03/21 11:08:59;;;;;;;4.30;2.00;;;;;;;12.36;100.00;99467.19;5000912;28;20045;-87
2023/03/21 11:11:26;;;;;;;12.23;1.90;;;;;;;12.14;100.00;99477.47;5033018;28;20095;-89
2023/03/21 11:14:05;;;;;;;6.28;1.77;;;;;;;12.01;100.00;99466.78;5029084;28;20161;-88
2023/03/21 11:16:40;;;;;;;12.85;2.92;;;;;;;11.78;100.00;99454.69;5050771;28;20041;-89
2023/03/21 11:19:17;;;;;;;13.27;3.30;;;;;;;11.64;100.00;99474.63;5035320;28;20032;-88
2023/03/21 11:21:44;;;;;;;4.75;1.80;;;;;;;11.47;100.00;99463.53;5015989;28;20037;-88
2023/03/21 11:24:16;;;;;;;4.32;1.02;;;;;;;11.29;100.00;99461.50;5048281;28;20029;-89
2023/03/21 11:26:43;;;;;;;;;;;;;;;11.12;100.00;99450.41;5033474;28;20052;-91
2023/03/21 11:29:30;;;;;;;8.90;1.55;;;;;;;10.91;100.00;99446.09;5044100;28;20011;-85
2023/03/21 11:31:59;;;;;;;9.55;1.63;;;;;;;10.77;100.00;99457.94;5018178;28;20041;-88
2023/03/21 11:34:32;;;;;;;3.95;0.80;;;;;;;10.59;100.00;99453.19;5043982;28;20747;-87
2023/03/21 11:37:00;;;;;;;3.55;1.35;;;;;;;10.52;100.00;99460.41;5000569;28;20052;-85
2023/03/21 11:39:38;;;;;;;6.90;1.92;;;;;;;10.50;100.00;99457.09;5050080;28;20529;-84
2023/03/21 11:42:13;;;;;;;4.25;1.27;;;;;;;10.36;100.00;99440.16;5015198;28;20156;-89